Time;durP1;ratioP1;P1;durP2;ratioP2;P2;SDS_P1;SDS_P2;PMS_P1;PMS_P2;Temp;Humidity;BMP_temperature;BMP_pressure;BME280_temperature;BME280_humidity;BME280_pressure;Samples;Min_cycle;Max_cycle;Signal;HPM_P1;HPM_P2
2021/11/19 00:00:32;;;;;;;664.23;626.77;;;11.70;99.90;;;;;;4395575;32;20200;-63
2021/11/19 00:03:00;;;;;;;634.23;599.00;;;11.70;99.90;;;;;;4397168;32;20475;-63
2021/11/19 00:05:27;;;;;;;629.03;593.90;;;11.70;99.90;;;;;;4397179;32;20164;-62
2021/11/19 00:07:54;;;;;;;647.63;611.43;;;11.70;99.90;;;;;;4396170;32;20622;-62
2021/11/19 00:10:22;;;;;;;637.03;601.23;;;11.70;99.90;;;;;;4406762;32;20211;-61
2021/11/19 00:12:48;;;;;;;638.93;603.30;;;11.70;99.90;;;;;;4410333;32;20229;-62
2021/11/19 00:15:18;;;;;;;645.00;609.33;;;11.70;99.90;;;;;;4411362;32;20544;-63
2021/11/19 00:17:47;;;;;;;627.00;592.00;;;11.80;99.90;;;;;;4396570;32;20160;-63
2021/11/19 00:20:20;;;;;;;649.27;613.63;;;11.70;99.90;;;;;;4397049;32;20475;-62
2021/11/19 00:22:48;;;;;;;628.93;593.27;;;11.80;99.90;;;;;;4397088;32;20144;-62
2021/11/19 00:25:15;;;;;;;640.60;604.83;;;11.70;99.90;;;;;;4395252;32;20176;-64
2021/11/19 00:27:42;;;;;;;650.33;614.33;;;11.60;99.90;;;;;;4395567;32;20643;-62
2021/11/19 00:30:12;;;;;;;637.03;601.37;;;11.70;99.90;;;;;;4396444;32;20176;-62
2021/11/19 00:32:39;;;;;;;642.47;605.90;;;11.70;99.90;;;;;;4409889;32;20167;-62
2021/11/19 00:35:10;;;;;;;616.37;582.20;;;11.70;99.90;;;;;;4410454;32;20175;-62
2021/11/19 00:37:38;;;;;;;632.80;597.67;;;11.70;99.90;;;;;;4404411;32;20227;-62
2021/11/19 00:40:08;;;;;;;633.00;597.57;;;11.70;99.90;;;;;;4402801;32;20178;-62
2021/11/19 00:42:34;;;;;;;654.57;617.67;;;11.70;99.90;;;;;;4396095;32;20187;-62
2021/11/19 00:45:01;;;;;;;624.53;590.20;;;11.80;99.90;;;;;;4381056;32;20156;-62
2021/11/19 00:47:28;;;;;;;633.60;597.97;;;11.80;99.90;;;;;;4379836;32;20516;-62
2021/11/19 00:49:59;;;;;;;643.70;607.43;;;11.90;99.90;;;;;;4379980;32;20174;-62
2021/11/19 00:52:28;;;;;;;632.97;598.23;;;11.80;99.90;;;;;;4380085;32;20218;-62
2021/11/19 00:54:55;;;;;;;621.40;586.87;;;11.90;99.90;;;;;;4380051;32;20198;-62
2021/11/19 00:57:22;;;;;;;640.07;604.27;;;11.90;99.90;;;;;;4381119;32;20564;-62
2021/11/19 00:59:49;;;;;;;628.00;593.40;;;11.90;99.90;;;;;;4410466;32;20163;-62
2021/11/19 01:02:19;;;;;;;642.57;606.87;;;11.90;99.90;;;;;;4411590;32;20578;-62
2021/11/19 01:04:47;;;;;;;656.37;620.10;;;11.90;99.90;;;;;;4396556;32;20536;-62
2021/11/19 01:07:15;;;;;;;650.83;614.00;;;11.90;99.90;;;;;;4399902;32;20213;-62
2021/11/19 01:09:46;;;;;;;635.87;601.37;;;11.90;99.90;;;;;;4408732;32;20207;-63
2021/11/19 01:12:15;;;;;;;635.90;600.70;;;12.00;99.90;;;;;;4409653;32;20147;-63
2021/11/19 01:14:48;;;;;;;655.07;617.90;;;12.00;99.90;;;;;;4407910;32;20152;-62
2021/11/19 01:17:17;;;;;;;666.47;628.53;;;12.00;99.90;;;;;;4409501;32;20171;-62
2021/11/19 01:19:48;;;;;;;653.67;617.00;;;11.90;99.90;;;;;;4408382;32;20604;-62
2021/11/19 01:22:19;;;;;;;642.10;606.17;;;11.90;99.90;;;;;;4401931;32;20612;-62
2021/11/19 01:24:48;;;;;;;656.73;619.47;;;12.00;99.90;;;;;;4392580;32;20183;-62
2021/11/19 01:27:15;;;;;;;633.37;598.60;;;11.90;99.90;;;;;;4392418;32;20568;-62
2021/11/19 01:29:47;;;;;;;648.23;611.67;;;12.00;99.90;;;;;;4392776;32;20182;-62
2021/11/19 01:32:16;;;;;;;664.17;627.13;;;12.00;99.90;;;;;;4392509;32;20295;-62
2021/11/19 01:34:43;;;;;;;641.53;605.73;;;12.00;99.90;;;;;;4392307;32;20151;-63
2021/11/19 01:37:12;;;;;;;632.67;597.47;;;12.00;99.90;;;;;;4393547;32;20203;-62
2021/11/19 01:39:40;;;;;;;644.63;608.77;;;12.00;99.90;;;;;;4392185;32;20204;-62
2021/11/19 01:42:12;;;;;;;661.03;624.20;;;12.00;99.90;;;;;;4391990;32;20198;-62
2021/11/19 01:44:42;;;;;;;660.80;623.10;;;12.00;99.90;;;;;;4392181;32;20587;-62
2021/11/19 01:47:12;;;;;;;643.67;607.07;;;12.00;99.90;;;;;;4391690;32;20190;-62
2021/11/19 01:49:40;;;;;;;657.00;620.07;;;12.00;99.90;;;;;;4392132;32;20183;-62
2021/11/19 01:52:11;;;;;;;651.90;614.73;;;12.10;99.90;;;;;;4392781;32;20506;-62
2021/11/19 01:54:43;;;;;;;653.87;617.33;;;12.10;99.90;;;;;;4393894;32;20603;-62
2021/11/19 01:57:20;;;;;;;648.80;611.20;;;12.00;99.90;;;;;;4393574;32;20275;-62
2021/11/19 01:59:52;;;;;;;658.80;621.90;;;12.00;99.90;;;;;;4392693;32;20214;-62
2021/11/19 02:02:23;;;;;;;661.87;625.30;;;12.00;99.90;;;;;;4404274;32;20610;-62
2021/11/19 02:04:54;;;;;;;647.93;611.07;;;12.00;99.90;;;;;;4408325;32;20191;-62
2021/11/19 02:07:24;;;;;;;666.47;628.10;;;12.00;99.90;;;;;;4407050;32;20148;-62
2021/11/19 02:09:59;;;;;;;659.70;622.40;;;12.00;99.90;;;;;;4407013;32;20191;-63
2021/11/19 02:12:35;;;;;;;658.07;620.87;;;12.00;99.90;;;;;;4406971;32;20255;-62
2021/11/19 02:15:10;;;;;;;650.27;613.20;;;12.00;99.90;;;;;;4408133;32;20160;-62
2021/11/19 02:17:38;;;;;;;655.50;617.97;;;12.00;99.90;;;;;;4407064;32;20155;-62
2021/11/19 02:20:09;;;;;;;638.33;602.07;;;11.90;99.90;;;;;;4406637;32;20151;-63
2021/11/19 02:22:40;;;;;;;652.23;615.73;;;12.00;99.90;;;;;;4407497;32;20163;-62
2021/11/19 02:25:10;;;;;;;650.07;612.87;;;12.00;99.90;;;;;;4408530;32;20148;-62
2021/11/19 02:27:42;;;;;;;653.73;616.37;;;12.00;99.90;;;;;;4406646;32;20204;-63
2021/11/19 02:30:12;;;;;;;662.33;625.07;;;12.00;99.90;;;;;;4394400;32;20167;-62
2021/11/19 02:32:42;;;;;;;681.20;642.60;;;12.00;99.90;;;;;;4392176;32;20160;-62
2021/11/19 02:35:13;;;;;;;650.90;614.20;;;12.00;99.90;;;;;;4393034;32;20144;-63
2021/11/19 02:37:46;;;;;;;658.10;621.17;;;11.90;99.90;;;;;;4392536;32;20689;-63
2021/11/19 02:40:16;;;;;;;645.23;608.87;;;12.00;99.90;;;;;;4391396;32;20204;-62
2021/11/19 02:42:48;;;;;;;660.83;623.47;;;12.00;99.90;;;;;;4393373;32;20256;-62
2021/11/19 02:45:19;;;;;;;640.50;603.40;;;12.00;99.90;;;;;;4391014;32;20211;-62
2021/11/19 02:47:46;;;;;;;654.37;617.07;;;12.00;99.90;;;;;;4393018;32;20148;-62
2021/11/19 02:50:17;;;;;;;673.60;635.63;;;12.00;99.90;;;;;;4393049;32;20151;-62
2021/11/19 02:52:46;;;;;;;678.07;639.87;;;12.00;99.90;;;;;;4391226;32;20215;-63
2021/11/19 02:55:18;;;;;;;652.57;614.90;;;12.00;99.90;;;;;;4392980;32;20568;-62
2021/11/19 02:57:48;;;;;;;673.33;634.63;;;12.00;99.90;;;;;;4399544;32;20167;-62
2021/11/19 03:00:19;;;;;;;653.03;615.53;;;12.00;99.90;;;;;;4408010;32;20521;-62
2021/11/19 03:02:46;;;;;;;663.47;624.80;;;11.90;99.90;;;;;;4406074;32;20171;-62
2021/11/19 03:05:16;;;;;;;646.90;609.83;;;11.90;99.90;;;;;;4406974;32;20211;-62
2021/11/19 03:07:43;;;;;;;668.67;629.90;;;11.90;99.90;;;;;;4406501;32;20459;-62
2021/11/19 03:10:14;;;;;;;653.70;616.20;;;11.90;99.90;;;;;;4406111;32;20198;-62
2021/11/19 03:12:41;;;;;;;664.30;626.00;;;11.80;99.90;;;;;;4395528;32;20242;-62
2021/11/19 03:15:13;;;;;;;663.77;625.87;;;11.80;99.90;;;;;;4391779;32;20616;-62
2021/11/19 03:17:40;;;;;;;656.97;620.03;;;11.80;99.90;;;;;;4390994;32;20218;-62
2021/11/19 03:20:09;;;;;;;656.30;619.00;;;11.70;99.90;;;;;;4392469;32;20194;-62
2021/11/19 03:22:37;;;;;;;664.83;626.13;;;11.60;99.90;;;;;;4390864;32;20173;-62
2021/11/19 03:25:07;;;;;;;669.90;631.17;;;11.60;99.90;;;;;;4395556;32;20223;-62
2021/11/19 03:27:34;;;;;;;671.97;633.13;;;11.70;99.90;;;;;;4405891;32;20190;-62
2021/11/19 03:30:02;;;;;;;668.63;629.77;;;11.60;99.90;;;;;;4406398;32;20162;-62
2021/11/19 03:32:32;;;;;;;664.90;625.90;;;11.60;99.90;;;;;;4406683;32;20163;-62
2021/11/19 03:35:02;;;;;;;679.53;640.17;;;11.60;99.90;;;;;;4407594;32;20600;-62
2021/11/19 03:37:29;;;;;;;671.57;632.23;;;11.60;99.90;;;;;;4406086;32;20170;-62
2021/11/19 03:39:56;;;;;;;675.13;635.23;;;11.70;99.90;;;;;;4401984;32;20163;-62
2021/11/19 03:42:23;;;;;;;660.27;622.23;;;11.70;99.90;;;;;;4393001;32;20176;-62
2021/11/19 03:44:55;;;;;;;690.43;650.20;;;11.60;99.90;;;;;;4400845;32;20202;-63
2021/11/19 03:47:26;;;;;;;681.60;641.83;;;11.60;99.90;;;;;;4407246;32;20444;-62
2021/11/19 03:49:55;;;;;;;658.80;620.87;;;11.70;99.90;;;;;;4407362;32;20531;-62
2021/11/19 03:52:27;;;;;;;670.40;631.03;;;11.70;99.90;;;;;;4406472;32;20168;-62
2021/11/19 03:54:57;;;;;;;662.50;623.10;;;11.70;99.90;;;;;;4407426;32;20519;-63
2021/11/19 03:57:26;;;;;;;686.47;645.90;;;11.60;99.90;;;;;;4404901;32;20237;-62
2021/11/19 03:59:54;;;;;;;672.17;632.20;;;11.80;99.90;;;;;;4392145;32;20580;-62
2021/11/19 04:02:24;;;;;;;654.43;616.70;;;11.80;99.90;;;;;;4390471;32;20174;-62
2021/11/19 04:04:50;;;;;;;661.53;623.17;;;11.80;99.90;;;;;;4392152;32;20213;-62
2021/11/19 04:07:20;;;;;;;668.83;629.33;;;11.80;99.90;;;;;;4390245;32;20171;-61
2021/11/19 04:09:49;;;;;;;668.20;628.67;;;11.80;99.90;;;;;;4392046;32;20152;-62
2021/11/19 04:12:18;;;;;;;677.60;637.87;;;11.80;99.90;;;;;;4392092;32;20151;-63
2021/11/19 04:14:46;;;;;;;675.67;636.83;;;11.80;99.90;;;;;;4407198;32;20167;-63
2021/11/19 04:17:13;;;;;;;680.13;640.40;;;11.80;99.90;;;;;;4405872;32;20166;-62
2021/11/19 04:19:40;;;;;;;693.13;653.20;;;11.80;99.90;;;;;;4401481;32;20534;-64
2021/11/19 04:22:10;;;;;;;691.50;651.87;;;11.90;99.90;;;;;;4390633;32;20469;-62
2021/11/19 04:24:49;;;;;;;694.77;654.07;;;11.90;99.90;;;;;;4391624;32;20557;-62
2021/11/19 04:27:18;;;;;;;671.97;632.43;;;11.90;99.90;;;;;;4401524;32;20215;-62
2021/11/19 04:29:46;;;;;;;692.73;651.70;;;11.90;99.90;;;;;;4399433;32;20221;-62
2021/11/19 04:32:16;;;;;;;689.73;649.20;;;11.90;99.90;;;;;;4405390;32;20170;-62
2021/11/19 04:34:43;;;;;;;691.73;651.27;;;11.90;99.90;;;;;;4403597;32;20156;-62
2021/11/19 04:37:10;;;;;;;666.80;626.90;;;11.90;99.90;;;;;;4376831;32;20153;-62
2021/11/19 04:39:38;;;;;;;684.83;645.20;;;11.90;99.90;;;;;;4379787;32;20183;-63
2021/11/19 04:42:05;;;;;;;685.97;645.63;;;11.90;99.90;;;;;;4390016;32;20172;-62
2021/11/19 04:44:34;;;;;;;671.70;631.33;;;11.90;99.90;;;;;;4327352;32;2075375;-62
2021/11/19 04:47:01;;;;;;;668.43;628.60;;;11.90;99.90;;;;;;4394801;32;20166;-62
2021/11/19 04:49:28;;;;;;;681.10;641.27;;;11.90;99.90;;;;;;4393960;32;20143;-63
2021/11/19 04:51:56;;;;;;;686.57;645.90;;;12.00;99.90;;;;;;4394600;32;20179;-62
2021/11/19 04:54:24;;;;;;;687.80;647.23;;;12.00;99.90;;;;;;4403091;32;20219;-62
2021/11/19 04:56:53;;;;;;;660.57;622.60;;;11.90;99.90;;;;;;4408275;32;20623;-62
2021/11/19 04:59:22;;;;;;;675.77;635.97;;;12.00;99.90;;;;;;4408066;32;20243;-62
2021/11/19 05:01:51;;;;;;;678.80;639.70;;;12.00;99.90;;;;;;4408544;32;20205;-62
2021/11/19 05:04:19;;;;;;;650.30;612.27;;;12.00;99.90;;;;;;4409701;32;20186;-62
2021/11/19 05:06:46;;;;;;;670.23;630.53;;;12.00;99.90;;;;;;4409330;32;20592;-62
2021/11/19 05:09:13;;;;;;;668.40;628.93;;;12.10;99.90;;;;;;4408393;32;20156;-62
2021/11/19 05:11:44;;;;;;;668.17;629.17;;;12.00;99.90;;;;;;4409257;32;20147;-62
2021/11/19 05:14:17;;;;;;;664.53;625.97;;;12.00;99.90;;;;;;4408923;32;20221;-62
2021/11/19 05:16:43;;;;;;;670.33;631.83;;;12.00;99.90;;;;;;4403469;32;20212;-62
2021/11/19 05:19:10;;;;;;;672.30;633.40;;;12.00;99.90;;;;;;4407599;32;20254;-63
2021/11/19 05:21:37;;;;;;;682.80;643.80;;;12.00;99.90;;;;;;4403871;32;20163;-63
2021/11/19 05:24:06;;;;;;;678.90;640.03;;;12.00;99.90;;;;;;4394168;32;20163;-62
2021/11/19 05:26:33;;;;;;;663.13;624.87;;;12.10;99.90;;;;;;4394176;32;20196;-62
2021/11/19 05:29:00;;;;;;;661.23;622.77;;;12.10;99.90;;;;;;4392304;32;20303;-64
2021/11/19 05:31:29;;;;;;;648.37;611.20;;;12.10;99.90;;;;;;4394104;32;20186;-64
2021/11/19 05:33:56;;;;;;;652.53;615.13;;;12.00;99.90;;;;;;4392091;32;20171;-63
2021/11/19 05:36:23;;;;;;;651.90;615.07;;;12.00;99.90;;;;;;4395824;32;20620;-63
2021/11/19 05:38:50;;;;;;;659.50;621.77;;;12.10;99.90;;;;;;4408751;32;20195;-63
2021/11/19 05:41:19;;;;;;;678.00;639.07;;;12.10;99.90;;;;;;4409122;32;20170;-62
2021/11/19 05:43:49;;;;;;;665.23;627.27;;;12.10;99.90;;;;;;4401397;32;20183;-62
2021/11/19 05:46:18;;;;;;;668.50;630.33;;;12.20;99.90;;;;;;4393837;32;20160;-62
2021/11/19 05:48:47;;;;;;;674.67;636.47;;;12.10;99.90;;;;;;4377087;32;20179;-62
2021/11/19 05:51:15;;;;;;;674.77;635.60;;;12.10;99.90;;;;;;4404546;32;20175;-62
2021/11/19 05:53:43;;;;;;;678.90;640.50;;;12.20;99.90;;;;;;4408640;32;20608;-62
2021/11/19 05:56:12;;;;;;;663.97;624.87;;;12.20;99.90;;;;;;4407231;32;20164;-63
2021/11/19 05:58:39;;;;;;;653.37;616.07;;;12.20;99.90;;;;;;4389176;32;20215;-63
2021/11/19 06:01:10;;;;;;;675.43;636.03;;;12.20;99.90;;;;;;4376849;32;20177;-62
2021/11/19 06:03:37;;;;;;;673.83;635.20;;;12.20;99.90;;;;;;4377162;32;20191;-62
2021/11/19 06:06:09;;;;;;;674.90;636.33;;;12.20;99.90;;;;;;4390565;32;20164;-63
2021/11/19 06:08:36;;;;;;;663.93;626.17;;;12.20;99.90;;;;;;4398187;32;20476;-62
2021/11/19 06:11:07;;;;;;;663.20;624.97;;;12.20;99.90;;;;;;4403464;32;20222;-62
2021/11/19 06:13:37;;;;;;;676.80;637.43;;;12.10;99.90;;;;;;4390279;32;20217;-62
2021/11/19 06:16:06;;;;;;;665.13;626.67;;;12.20;99.90;;;;;;4388307;32;20179;-62
2021/11/19 06:18:39;;;;;;;649.23;612.57;;;12.10;99.90;;;;;;4389736;32;20207;-63
2021/11/19 06:21:11;;;;;;;666.57;628.53;;;12.10;99.90;;;;;;4389716;32;20198;-62
2021/11/19 06:23:44;;;;;;;675.27;637.10;;;12.20;99.90;;;;;;4391846;32;20170;-62
2021/11/19 06:26:14;;;;;;;680.70;641.93;;;12.20;99.90;;;;;;4392470;32;20577;-63
2021/11/19 06:28:42;;;;;;;663.30;625.90;;;12.10;99.90;;;;;;4391510;32;20178;-62
2021/11/19 06:31:10;;;;;;;678.57;639.37;;;12.20;99.90;;;;;;4392252;32;20223;-62
2021/11/19 06:33:38;;;;;;;665.70;628.23;;;12.20;99.90;;;;;;4388177;32;20592;-62
2021/11/19 06:36:07;;;;;;;684.67;645.23;;;12.20;99.90;;;;;;4388880;32;20175;-62
2021/11/19 06:38:35;;;;;;;681.23;642.17;;;12.30;99.90;;;;;;4391207;32;20179;-62
2021/11/19 06:41:02;;;;;;;666.93;628.37;;;12.20;99.90;;;;;;4391326;32;20190;-63
2021/11/19 06:43:33;;;;;;;668.10;629.67;;;12.30;99.90;;;;;;4390837;32;20224;-62
2021/11/19 06:46:00;;;;;;;672.93;634.97;;;12.20;99.90;;;;;;4387578;32;20241;-63
2021/11/19 06:48:26;;;;;;;667.00;628.57;;;12.20;99.90;;;;;;4390387;32;20445;-62
2021/11/19 06:50:54;;;;;;;673.23;635.00;;;12.10;99.90;;;;;;4389674;32;20157;-63
2021/11/19 06:53:22;;;;;;;669.40;631.17;;;12.10;99.90;;;;;;4388619;32;20167;-63
2021/11/19 06:55:49;;;;;;;669.77;632.23;;;12.20;99.90;;;;;;4388758;32;20183;-62
2021/11/19 06:58:17;;;;;;;674.67;636.37;;;12.20;99.90;;;;;;4387755;32;20557;-62
2021/11/19 07:00:46;;;;;;;661.53;623.60;;;12.20;99.90;;;;;;4390172;32;20164;-62
2021/11/19 07:03:14;;;;;;;674.83;636.00;;;12.20;99.90;;;;;;4389946;32;20168;-62
2021/11/19 07:05:42;;;;;;;658.50;620.73;;;12.20;99.90;;;;;;4388389;32;20230;-63
2021/11/19 07:08:11;;;;;;;665.37;626.83;;;12.20;99.90;;;;;;4389178;32;20207;-63
2021/11/19 07:10:41;;;;;;;678.80;640.03;;;12.10;99.90;;;;;;4387934;32;20190;-62
2021/11/19 07:13:08;;;;;;;659.63;622.60;;;12.10;99.90;;;;;;4388699;32;20622;-63
2021/11/19 07:15:36;;;;;;;668.97;631.57;;;12.20;99.90;;;;;;4389217;32;20160;-62
2021/11/19 07:18:03;;;;;;;694.27;653.90;;;12.10;99.90;;;;;;4389384;32;20168;-62
2021/11/19 07:20:31;;;;;;;667.87;630.03;;;12.20;99.90;;;;;;4388057;32;20270;-63
2021/11/19 07:22:58;;;;;;;649.77;612.27;;;12.20;99.90;;;;;;4387433;32;20211;-62
2021/11/19 07:25:27;;;;;;;663.90;626.30;;;12.20;99.90;;;;;;4383066;32;20203;-61
2021/11/19 07:27:59;;;;;;;687.37;647.47;;;12.30;99.90;;;;;;4384562;32;20266;-63
2021/11/19 07:30:28;;;;;;;658.83;621.67;;;12.30;99.90;;;;;;4387223;32;20156;-62
2021/11/19 07:32:56;;;;;;;654.47;617.50;;;12.30;99.90;;;;;;4388795;32;20216;-63
2021/11/19 07:35:23;;;;;;;671.47;633.73;;;12.30;99.90;;;;;;4392650;32;20164;-64
2021/11/19 07:37:50;;;;;;;670.30;631.70;;;12.30;99.90;;;;;;4392223;32;20174;-63
2021/11/19 07:40:20;;;;;;;677.90;639.07;;;12.40;99.90;;;;;;4391915;32;20628;-63
2021/11/19 07:42:47;;;;;;;691.90;652.40;;;12.40;99.90;;;;;;4390834;32;20167;-63
2021/11/19 07:45:16;;;;;;;663.63;625.50;;;12.40;99.90;;;;;;4390567;32;20493;-63
2021/11/19 07:47:43;;;;;;;681.87;642.73;;;12.30;99.90;;;;;;4390140;32;20180;-63
2021/11/19 07:50:14;;;;;;;692.50;652.43;;;12.30;99.90;;;;;;4392221;32;20573;-62
2021/11/19 07:52:41;;;;;;;653.50;616.30;;;12.40;99.90;;;;;;4389089;32;20203;-62
2021/11/19 07:55:09;;;;;;;674.30;636.77;;;12.40;99.90;;;;;;4391099;32;20152;-63
2021/11/19 07:57:37;;;;;;;680.80;642.17;;;12.50;99.90;;;;;;4391725;32;20588;-63
2021/11/19 08:00:08;;;;;;;672.13;634.00;;;12.50;99.90;;;;;;4390654;32;20171;-63
2021/11/19 08:02:36;;;;;;;685.40;646.40;;;12.60;99.90;;;;;;4389593;32;20164;-62
2021/11/19 08:05:05;;;;;;;661.00;623.73;;;12.60;99.90;;;;;;4389922;32;20156;-63
2021/11/19 08:07:32;;;;;;;666.73;628.37;;;12.60;99.90;;;;;;4389944;32;20199;-63
2021/11/19 08:09:59;;;;;;;669.67;631.10;;;12.70;99.90;;;;;;4391694;32;20163;-63
2021/11/19 08:12:26;;;;;;;664.13;626.93;;;12.70;99.90;;;;;;4389920;32;20182;-63
2021/11/19 08:14:53;;;;;;;659.73;622.17;;;12.70;99.90;;;;;;4390306;32;20195;-64
2021/11/19 08:17:27;;;;;;;693.20;653.90;;;12.80;99.90;;;;;;4389533;32;20167;-63
2021/11/19 08:19:55;;;;;;;688.10;648.70;;;12.80;99.90;;;;;;4392634;32;20155;-63
2021/11/19 08:22:23;;;;;;;651.50;614.63;;;12.90;99.90;;;;;;4392793;32;20175;-62
2021/11/19 08:24:51;;;;;;;690.50;651.10;;;12.80;99.90;;;;;;4393723;32;20625;-63
2021/11/19 08:27:22;;;;;;;677.47;638.63;;;12.80;99.90;;;;;;4392825;32;20163;-62
2021/11/19 08:29:51;;;;;;;695.47;655.83;;;12.80;99.90;;;;;;4393839;32;20221;-63
2021/11/19 08:32:19;;;;;;;680.50;641.60;;;12.90;99.90;;;;;;4392771;32;20223;-62
2021/11/19 08:34:48;;;;;;;686.10;647.23;;;12.80;99.90;;;;;;4391644;32;20212;-63
2021/11/19 08:37:18;;;;;;;681.07;642.30;;;12.80;99.90;;;;;;4391992;32;20568;-62
2021/11/19 08:39:45;;;;;;;685.33;645.87;;;12.90;99.90;;;;;;4394151;32;20487;-63
2021/11/19 08:42:12;;;;;;;690.53;651.90;;;12.90;99.90;;;;;;4394215;32;20199;-63
2021/11/19 08:44:40;;;;;;;678.90;640.13;;;12.90;99.90;;;;;;4389719;32;20194;-62
2021/11/19 08:47:08;;;;;;;688.07;649.33;;;12.90;99.90;;;;;;4390113;32;20152;-64
2021/11/19 08:49:36;;;;;;;691.23;652.33;;;12.90;99.90;;;;;;4393392;32;20625;-63
2021/11/19 08:52:05;;;;;;;683.97;645.37;;;12.90;99.90;;;;;;4394289;32;20211;-63
2021/11/19 08:54:33;;;;;;;671.97;633.33;;;13.00;99.90;;;;;;4393462;32;20568;-63
2021/11/19 08:57:04;;;;;;;691.60;652.73;;;13.10;99.90;;;;;;4387399;32;20160;-63
2021/11/19 08:59:34;;;;;;;678.37;640.17;;;13.10;99.90;;;;;;4385292;32;20163;-63
2021/11/19 09:02:01;;;;;;;686.23;647.53;;;13.20;99.90;;;;;;4392060;32;20164;-63
2021/11/19 09:04:29;;;;;;;682.53;644.07;;;13.20;99.90;;;;;;4394050;32;20259;-62
2021/11/19 09:06:57;;;;;;;668.47;630.20;;;13.20;99.90;;;;;;4391046;32;20194;-62
2021/11/19 09:09:25;;;;;;;665.43;627.57;;;13.20;99.90;;;;;;4392107;32;20209;-61
2021/11/19 09:11:54;;;;;;;680.17;641.80;;;13.10;99.90;;;;;;4388338;32;20218;-62
2021/11/19 09:14:22;;;;;;;686.93;648.07;;;13.10;99.90;;;;;;4389322;32;20788;-62
2021/11/19 09:16:58;;;;;;;672.90;634.97;;;13.10;99.90;;;;;;4392685;32;20179;-62
2021/11/19 09:19:30;;;;;;;677.40;639.07;;;13.10;99.90;;;;;;4390195;32;20176;-62
2021/11/19 09:22:04;;;;;;;683.90;645.87;;;13.10;99.90;;;;;;4393760;32;20194;-62
2021/11/19 09:24:32;;;;;;;660.23;622.70;;;13.10;99.90;;;;;;4391966;32;20155;-63
2021/11/19 09:27:09;;;;;;;681.50;643.17;;;13.00;99.90;;;;;;4375788;32;20268;-62
2021/11/19 09:29:39;;;;;;;667.87;629.93;;;13.20;99.90;;;;;;4391857;32;20611;-62
2021/11/19 09:32:07;;;;;;;681.23;642.43;;;13.30;99.90;;;;;;4386521;32;20461;-62
2021/11/19 09:34:38;;;;;;;670.77;633.13;;;13.40;99.90;;;;;;4392401;32;20198;-62
2021/11/19 09:37:05;;;;;;;681.97;644.10;;;13.40;99.90;;;;;;4393626;32;20156;-62
2021/11/19 09:39:32;;;;;;;673.90;636.57;;;13.60;99.90;;;;;;4393480;32;20282;-62
2021/11/19 09:42:10;;;;;;;684.63;646.27;;;13.70;99.90;;;;;;4392155;32;20148;-62
2021/11/19 09:45:07;;;;;;;688.33;650.17;;;13.70;99.90;;;;;;4391430;32;20179;-62
2021/11/19 09:48:04;;;;;;;677.23;639.77;;;13.80;99.90;;;;;;4378948;32;20175;-63
2021/11/19 09:51:07;;;;;;;660.87;624.10;;;13.80;99.90;;;;;;4386760;32;20174;-62
2021/11/19 09:54:08;;;;;;;657.50;621.33;;;13.90;99.90;;;;;;4384577;32;20227;-63
2021/11/19 09:56:48;;;;;;;652.57;617.03;;;14.00;99.90;;;;;;4376342;32;20171;-62
2021/11/19 09:59:25;;;;;;;640.70;605.90;;;14.20;99.90;;;;;;4372888;32;20160;-62
2021/11/19 10:02:08;;;;;;;671.50;634.57;;;14.30;99.90;;;;;;4380273;32;20214;-61
2021/11/19 10:04:56;;;;;;;661.53;625.43;;;14.30;99.90;;;;;;4391559;32;20160;-63
2021/11/19 10:07:32;;;;;;;676.77;638.87;;;14.40;99.90;;;;;;4388951;32;20243;-63
2021/11/19 10:10:27;;;;;;;697.00;657.87;;;14.40;99.90;;;;;;4388882;32;20524;-62
2021/11/19 10:13:01;;;;;;;702.43;663.37;;;14.50;99.90;;;;;;4388560;32;20187;-63
2021/11/19 10:15:36;;;;;;;700.77;660.10;;;14.50;99.90;;;;;;4386602;32;20164;-61
2021/11/19 10:18:08;;;;;;;720.20;678.97;;;14.50;99.90;;;;;;4384006;32;20199;-63
2021/11/19 10:20:39;;;;;;;702.07;661.30;;;14.40;99.90;;;;;;4386907;32;20178;-61
2021/11/19 10:23:09;;;;;;;714.80;673.43;;;14.40;99.90;;;;;;4391271;32;20488;-62
2021/11/19 10:25:39;;;;;;;699.00;659.03;;;14.50;99.90;;;;;;4386455;32;20154;-63
2021/11/19 10:28:11;;;;;;;702.80;662.93;;;14.40;99.90;;;;;;4391075;32;20189;-62
2021/11/19 10:30:42;;;;;;;703.33;663.57;;;14.20;99.90;;;;;;4389449;32;20160;-62
2021/11/19 10:33:15;;;;;;;686.57;647.93;;;14.10;99.90;;;;;;4392688;32;20216;-61
2021/11/19 10:36:00;;;;;;;699.37;659.33;;;14.00;99.90;;;;;;4390988;32;20203;-61
2021/11/19 10:38:58;;;;;;;662.37;625.63;;;13.90;99.90;;;;;;4394416;32;20175;-61
2021/11/19 10:42:05;;;;;;;690.90;652.03;;;13.70;99.90;;;;;;4369710;32;20519;-61
2021/11/19 10:45:01;;;;;;;675.00;638.00;;;13.70;99.90;;;;;;4390722;32;20442;-61
2021/11/19 10:48:03;;;;;;;661.67;625.60;;;13.60;99.90;;;;;;4387143;32;20207;-61
2021/11/19 10:51:02;;;;;;;661.93;625.43;;;13.70;99.90;;;;;;4392493;32;20665;-61
2021/11/19 10:54:20;;;;;;;652.53;617.67;;;13.60;99.90;;;;;;4389216;32;20175;-61
2021/11/19 10:56:58;;;;;;;659.77;622.80;;;13.50;99.90;;;;;;4388453;32;20160;-62
2021/11/19 10:59:31;;;;;;;672.93;635.43;;;13.40;99.90;;;;;;4389767;32;20198;-63
2021/11/19 11:02:20;;;;;;;681.77;643.53;;;13.50;99.90;;;;;;4392198;32;20180;-63
2021/11/19 11:04:52;;;;;;;676.77;639.40;;;13.80;99.90;;;;;;4391056;32;20200;-63
2021/11/19 11:07:23;;;;;;;682.00;643.60;;;14.00;99.90;;;;;;4391076;32;20160;-63
2021/11/19 11:09:52;;;;;;;681.57;643.70;;;14.10;99.90;;;;;;4389529;32;20160;-62
2021/11/19 11:12:31;;;;;;;691.03;652.30;;;14.00;99.90;;;;;;4391546;32;20504;-62
2021/11/19 11:15:19;;;;;;;669.93;633.03;;;13.80;99.90;;;;;;4390260;32;20171;-62
2021/11/19 11:18:00;;;;;;;676.00;638.13;;;13.50;99.90;;;;;;4389328;32;20160;-62
2021/11/19 11:20:34;;;;;;;675.87;637.87;;;13.30;99.90;;;;;;4385284;32;20179;-62
2021/11/19 11:23:04;;;;;;;676.27;638.53;;;13.20;99.90;;;;;;4389379;32;20160;-63
2021/11/19 11:25:37;;;;;;;669.53;632.50;;;13.20;99.90;;;;;;4387341;32;20174;-63
2021/11/19 11:28:11;;;;;;;670.83;633.53;;;13.50;99.90;;;;;;4383592;32;20219;-63
2021/11/19 11:30:54;;;;;;;663.47;626.70;;;14.00;99.90;;;;;;4389277;32;20167;-63
2021/11/19 11:33:24;;;;;;;669.97;633.40;;;14.30;99.90;;;;;;4384275;32;20231;-60
2021/11/19 11:36:05;;;;;;;660.27;624.23;;;14.40;99.90;;;;;;4390575;32;20211;-62
2021/11/19 11:38:47;;;;;;;662.70;626.03;;;14.20;99.90;;;;;;4390566;32;20156;-63
2021/11/19 11:41:36;;;;;;;663.17;626.80;;;14.10;99.90;;;;;;4386724;32;20221;-62
2021/11/19 11:44:24;;;;;;;673.60;636.27;;;14.00;99.90;;;;;;4337296;33;20233;-63
2021/11/19 11:47:07;;;;;;;664.57;628.30;;;14.00;99.90;;;;;;4343682;33;20762;-62
2021/11/19 11:49:45;;;;;;;654.60;618.57;;;13.90;99.90;;;;;;4343367;33;20267;-62
2021/11/19 11:52:32;;;;;;;672.73;635.17;;;13.90;99.90;;;;;;4340819;33;20168;-62
2021/11/19 11:55:21;;;;;;;664.07;626.73;;;13.90;99.90;;;;;;4342365;33;20682;-63
2021/11/19 11:58:27;;;;;;;652.37;616.80;;;14.10;99.90;;;;;;4341580;33;20240;-62
2021/11/19 12:01:02;;;;;;;656.70;621.10;;;14.10;99.90;;;;;;4297023;33;20169;-64
2021/11/19 12:03:45;;;;;;;650.20;615.70;;;14.20;99.90;;;;;;4299218;33;20191;-62
2021/11/19 12:06:16;;;;;;;660.00;624.87;;;14.40;99.90;;;;;;4298194;33;20166;-63
2021/11/19 12:09:02;;;;;;;635.10;601.27;;;14.40;99.90;;;;;;4286301;33;20248;-60
2021/11/19 12:12:12;;;;;;;630.80;597.50;;;14.40;99.90;;;;;;4290461;33;20174;-64
2021/11/19 12:14:44;;;;;;;623.50;591.03;;;14.40;99.90;;;;;;4261531;33;20186;-63
2021/11/19 12:17:21;;;;;;;630.00;597.80;;;14.50;99.90;;;;;;4269356;33;20193;-63
2021/11/19 12:19:53;;;;;;;627.07;593.77;;;14.60;99.90;;;;;;4265094;33;20182;-63
2021/11/19 12:22:27;;;;;;;633.63;600.07;;;14.60;99.90;;;;;;4291384;33;20510;-62
2021/11/19 12:25:09;;;;;;;607.67;575.67;;;14.50;99.90;;;;;;4286975;33;20232;-63
2021/11/19 12:27:42;;;;;;;604.60;573.13;;;14.70;99.90;;;;;;4291071;33;20184;-63
2021/11/19 12:30:29;;;;;;;627.40;594.27;;;14.70;99.90;;;;;;4291503;33;20190;-63